Terminal Aerodrome Forecast
Issued by NWS Flagstaff, AZ

Home | Current Version | Previous Version | Text Only | Print | Product List | Glossary On
Versions: 1 2 3 4 5 6 7 8 9 10 11 12 13 14 15 16
000
FTUS45 KFGZ 271135
TAFFLG
TAF
KFLG 271135Z 2712/2812 VRB05KT P6SM SKC
     FM271900 24010G16KT P6SM VCSH OVC090
     FM280100 VRB03KT P6SM FEW090=

USA.gov is the U.S. government's official web portal to all federal, state and local government web resources and services.